Time;durP1;ratioP1;P1;durP2;ratioP2;P2;SDS_P1;SDS_P2;PMS_P1;PMS_P2;Temp;Humidity;BMP_temperature;BMP_pressure;BME280_temperature;BME280_humidity;BME280_pressure;Samples;Min_cycle;Max_cycle;Signal;HPM_P1;HPM_P2
2022/09/22 00:01:05;;;;;;;1.65;1.50;;;8.00;99.90;;;;;;4986537;28;20422;-74
2022/09/22 00:03:32;;;;;;;2.03;1.10;;;7.90;99.90;;;;;;4982059;28;20051;-73
2022/09/22 00:06:02;;;;;;;2.08;0.85;;;7.80;99.90;;;;;;4982991;28;20128;-74
2022/09/22 00:08:31;;;;;;;3.47;1.88;;;7.80;99.90;;;;;;4982797;28;20390;-74
2022/09/22 00:11:17;;;;;;;3.63;1.33;;;7.70;99.90;;;;;;4969630;28;20078;-75
2022/09/22 00:13:57;;;;;;;3.47;2.00;;;7.70;99.90;;;;;;4988250;28;20133;-74
2022/09/22 00:16:29;;;;;;;0.90;0.50;;;7.70;99.90;;;;;;4986152;28;20049;-73
2022/09/22 00:18:55;;;;;;;1.05;0.95;;;7.60;99.90;;;;;;4978922;28;20088;-74
2022/09/22 00:21:23;;;;;;;1.52;0.90;;;7.60;99.90;;;;;;4985112;28;20048;-74
2022/09/22 00:23:51;;;;;;;1.50;0.70;;;7.50;99.90;;;;;;4988341;28;20084;-75
2022/09/22 00:26:20;;;;;;;0.50;0.50;;;7.50;99.90;;;;;;4988299;28;20042;-74
2022/09/22 00:28:47;;;;;;;0.82;0.82;;;7.50;99.90;;;;;;4986265;28;20077;-73
2022/09/22 00:31:23;;;;;;;0.50;0.40;;;7.40;99.90;;;;;;4986511;28;20100;-74
2022/09/22 00:33:51;;;;;;;1.02;0.90;;;7.30;99.90;;;;;;4978958;28;20225;-73
2022/09/22 00:36:18;;;;;;;3.95;1.30;;;7.30;99.90;;;;;;4990031;28;20050;-74
2022/09/22 00:38:45;;;;;;;3.42;1.75;;;7.30;99.90;;;;;;4987233;28;20054;-74
2022/09/22 00:41:22;;;;;;;1.35;0.80;;;7.30;99.90;;;;;;4985793;28;20058;-74
2022/09/22 00:44:11;;;;;;;1.88;1.23;;;7.20;99.90;;;;;;4989072;28;20057;-74
2022/09/22 00:46:40;;;;;;;5.90;2.20;;;7.20;99.90;;;;;;4984196;28;20039;-74
2022/09/22 00:49:08;;;;;;;2.97;1.65;;;7.20;99.90;;;;;;4987800;28;20053;-74
2022/09/22 00:51:37;;;;;;;3.40;2.00;;;7.20;99.90;;;;;;4967448;28;20057;-74
2022/09/22 00:54:06;;;;;;;7.13;2.28;;;7.20;99.90;;;;;;4986389;28;20046;-75
2022/09/22 00:56:42;;;;;;;4.18;1.90;;;7.20;99.90;;;;;;4985091;28;20423;-74
2022/09/22 00:59:13;;;;;;;3.35;1.40;;;7.20;99.90;;;;;;4978732;28;20057;-74
2022/09/22 01:01:39;;;;;;;2.58;1.42;;;7.20;99.90;;;;;;4978704;28;20130;-74
2022/09/22 01:04:05;;;;;;;5.15;2.10;;;7.20;99.90;;;;;;4988577;28;20054;-74
2022/09/22 01:06:32;;;;;;;8.57;2.38;;;7.10;99.90;;;;;;4982810;28;20909;-74
2022/09/22 01:09:00;;;;;;;2.92;2.03;;;7.10;99.90;;;;;;4982976;28;20073;-74
2022/09/22 01:11:28;;;;;;;2.03;1.80;;;7.20;99.90;;;;;;4981885;28;20090;-74
2022/09/22 01:14:12;;;;;;;6.07;2.35;;;7.20;99.90;;;;;;4981054;28;20052;-74
2022/09/22 01:17:03;;;;;;;1.15;0.80;;;7.10;99.90;;;;;;4981217;28;20125;-74
2022/09/22 01:20:01;;;;;;;3.75;1.70;;;7.10;99.90;;;;;;4984747;28;20073;-74
2022/09/22 01:22:33;;;;;;;3.90;1.80;;;7.00;99.90;;;;;;4987210;28;20054;-74
2022/09/22 01:25:28;;;;;;;3.08;1.10;;;7.00;99.90;;;;;;4987323;28;20093;-73
2022/09/22 01:28:08;;;;;;;2.72;1.60;;;6.90;99.90;;;;;;4987208;28;20082;-74
2022/09/22 01:30:37;;;;;;;3.60;2.03;;;6.90;99.90;;;;;;4983347;28;20038;-74
2022/09/22 01:33:06;;;;;;;1.95;1.30;;;6.90;99.90;;;;;;4989234;28;20054;-74
2022/09/22 01:35:49;;;;;;;1.60;0.90;;;6.90;99.90;;;;;;4988704;28;20053;-73
2022/09/22 01:38:35;;;;;;;3.15;1.30;;;6.80;99.90;;;;;;4986291;28;20054;-73
2022/09/22 01:41:09;;;;;;;1.88;1.30;;;6.80;99.90;;;;;;4980613;28;20074;-73
2022/09/22 01:43:55;;;;;;;3.97;1.33;;;6.80;99.90;;;;;;4987905;28;20061;-73
2022/09/22 01:46:26;;;;;;;3.22;1.50;;;6.80;99.90;;;;;;4987687;28;20050;-74
2022/09/22 01:48:53;;;;;;;2.13;1.40;;;6.70;99.90;;;;;;4976119;28;20077;-75
2022/09/22 01:51:26;;;;;;;3.78;1.40;;;6.70;99.90;;;;;;4988900;28;20097;-73
2022/09/22 01:54:09;;;;;;;;;;;6.70;99.90;;;;;;4978563;28;20054;-74
2022/09/22 01:56:37;;;;;;;5.50;1.95;;;6.70;99.90;;;;;;4987775;28;19918;-74
2022/09/22 01:59:06;;;;;;;6.70;1.92;;;6.70;99.90;;;;;;4988377;28;20050;-73
2022/09/22 02:01:44;;;;;;;3.10;1.95;;;6.70;99.90;;;;;;4987144;28;20092;-73
2022/09/22 02:04:23;;;;;;;8.10;2.40;;;6.70;99.90;;;;;;4967207;28;20093;-74
2022/09/22 02:06:54;;;;;;;4.93;2.45;;;6.80;99.90;;;;;;4984560;28;20034;-74
2022/09/22 02:09:23;;;;;;;4.63;2.47;;;6.80;99.90;;;;;;4985942;28;20086;-74
2022/09/22 02:11:49;;;;;;;4.72;2.20;;;6.80;99.90;;;;;;4986411;28;20423;-73
2022/09/22 02:14:15;;;;;;;6.07;2.60;;;6.80;99.90;;;;;;4975448;28;20099;-74
2022/09/22 02:16:41;;;;;;;5.88;2.65;;;6.80;99.90;;;;;;4983874;28;20054;-73
2022/09/22 02:19:15;;;;;;;4.85;2.60;;;6.80;99.90;;;;;;4986701;28;20064;-73
2022/09/22 02:21:45;;;;;;;4.70;2.33;;;6.80;99.90;;;;;;4984113;28;20084;-74
2022/09/22 02:24:29;;;;;;;3.00;2.10;;;6.80;99.90;;;;;;4978478;28;20061;-74
2022/09/22 02:26:57;;;;;;;4.13;2.38;;;6.80;99.90;;;;;;4975614;28;20042;-74
2022/09/22 02:29:25;;;;;;;7.25;1.67;;;6.80;99.90;;;;;;4983979;28;20042;-73
2022/09/22 02:31:52;;;;;;;3.65;1.48;;;6.80;99.90;;;;;;4982373;28;20069;-73
2022/09/22 02:34:18;;;;;;;2.50;1.83;;;6.70;99.90;;;;;;4979695;28;20054;-73
2022/09/22 02:37:10;;;;;;;3.58;1.20;;;6.70;99.90;;;;;;4981799;28;20149;-73
2022/09/22 02:39:48;;;;;;;1.20;0.80;;;6.60;99.90;;;;;;4967880;28;20057;-75
2022/09/22 02:42:31;;;;;;;1.48;0.60;;;6.60;99.90;;;;;;4989211;28;20053;-74
2022/09/22 02:45:21;;;;;;;0.60;0.60;;;6.50;99.90;;;;;;4976384;28;20046;-73
2022/09/22 02:48:17;;;;;;;3.42;1.40;;;6.50;99.90;;;;;;4986230;28;20101;-73
2022/09/22 02:50:43;;;;;;;3.40;1.52;;;6.50;99.90;;;;;;4972050;28;20395;-73
2022/09/22 02:53:15;;;;;;;1.67;1.58;;;6.50;99.90;;;;;;4987052;28;20042;-74
2022/09/22 02:55:42;;;;;;;4.55;2.25;;;6.50;99.90;;;;;;4979028;28;20073;-73
2022/09/22 02:58:08;;;;;;;2.95;2.30;;;6.50;99.90;;;;;;4971034;28;20135;-74
2022/09/22 03:00:34;;;;;;;4.85;2.50;;;6.50;99.90;;;;;;4987314;28;20093;-74
2022/09/22 03:03:00;;;;;;;0.90;0.60;;;6.50;99.90;;;;;;4967390;28;20070;-74
2022/09/22 03:05:26;;;;;;;0.52;0.50;;;6.50;99.90;;;;;;4984199;28;20050;-73
2022/09/22 03:07:51;;;;;;;1.70;0.45;;;6.40;99.90;;;;;;4987047;28;20224;-74
2022/09/22 03:10:17;;;;;;;0.20;0.20;;;6.40;99.90;;;;;;4973331;28;20043;-73
2022/09/22 03:12:42;;;;;;;0.40;0.38;;;6.20;99.90;;;;;;4967903;28;20046;-73
2022/09/22 03:15:13;;;;;;;0.45;0.45;;;6.20;99.90;;;;;;4987056;28;20117;-73
2022/09/22 03:17:40;;;;;;;2.17;0.50;;;6.10;99.90;;;;;;4987994;28;20055;-73
2022/09/22 03:20:09;;;;;;;1.48;1.05;;;6.10;99.90;;;;;;4985584;28;20050;-73
2022/09/22 03:22:35;;;;;;;1.20;1.10;;;6.10;99.90;;;;;;4984147;28;20039;-73
2022/09/22 03:25:01;;;;;;;2.35;0.70;;;6.10;99.90;;;;;;4988403;28;20054;-73
2022/09/22 03:27:26;;;;;;;0.45;0.43;;;6.10;99.90;;;;;;4984456;28;20046;-73
2022/09/22 03:29:53;;;;;;;2.28;0.68;;;6.10;99.90;;;;;;4987676;28;20092;-73
2022/09/22 03:32:20;;;;;;;1.83;1.30;;;6.10;99.90;;;;;;4985556;28;20084;-74
2022/09/22 03:34:46;;;;;;;1.27;1.17;;;6.10;99.90;;;;;;4981128;28;20045;-73
2022/09/22 03:37:12;;;;;;;0.80;0.80;;;6.10;99.90;;;;;;4979851;28;20050;-73
2022/09/22 03:39:37;;;;;;;0.82;0.82;;;6.10;99.90;;;;;;4975429;28;20507;-74
2022/09/22 03:42:03;;;;;;;2.20;1.40;;;6.00;99.90;;;;;;4987790;28;20117;-74
2022/09/22 03:44:29;;;;;;;3.33;1.17;;;6.00;99.90;;;;;;4985468;28;20129;-74
2022/09/22 03:46:54;;;;;;;1.65;0.70;;;6.00;99.90;;;;;;4991733;28;20085;-73
2022/09/22 03:49:20;;;;;;;4.30;1.80;;;5.90;99.90;;;;;;4990262;28;20064;-73
2022/09/22 03:51:45;;;;;;;2.50;2.30;;;5.90;99.90;;;;;;4987394;28;20070;-74
2022/09/22 03:54:11;;;;;;;3.50;2.10;;;6.00;99.90;;;;;;4984433;28;20111;-74
2022/09/22 03:56:37;;;;;;;3.25;2.40;;;6.00;99.90;;;;;;4988338;28;20042;-73
2022/09/22 03:59:04;;;;;;;6.75;3.92;;;6.00;99.90;;;;;;4988219;28;20065;-74
2022/09/22 04:01:30;;;;;;;5.75;3.42;;;5.90;99.90;;;;;;4970320;28;20187;-74
2022/09/22 04:03:56;;;;;;;7.38;4.47;;;6.00;99.90;;;;;;4979399;28;20043;-74
2022/09/22 04:06:21;;;;;;;6.40;4.10;;;6.00;99.90;;;;;;4978812;28;20069;-73
2022/09/22 04:08:47;;;;;;;6.28;3.10;;;6.10;99.90;;;;;;4986774;28;20040;-74
2022/09/22 04:11:13;;;;;;;3.58;2.40;;;6.00;99.90;;;;;;4989094;28;20181;-74
2022/09/22 04:13:38;;;;;;;2.92;1.20;;;6.10;99.90;;;;;;4982698;28;20069;-74
2022/09/22 04:16:04;;;;;;;1.45;0.90;;;6.10;99.90;;;;;;4985190;28;20332;-74
2022/09/22 04:18:31;;;;;;;1.13;0.85;;;6.10;99.90;;;;;;4983331;28;20046;-74
2022/09/22 04:20:57;;;;;;;1.88;1.17;;;6.00;99.90;;;;;;4976760;28;20078;-74
2022/09/22 04:23:24;;;;;;;2.45;0.80;;;5.90;99.90;;;;;;4987390;28;20109;-74
2022/09/22 04:25:50;;;;;;;3.40;1.10;;;5.90;99.90;;;;;;4980683;28;20077;-75
2022/09/22 04:28:16;;;;;;;1.45;1.20;;;5.80;99.90;;;;;;4988558;28;20070;-74
2022/09/22 04:30:42;;;;;;;3.65;1.95;;;5.80;99.90;;;;;;4987527;28;20439;-74
2022/09/22 04:33:09;;;;;;;3.40;2.53;;;5.80;99.90;;;;;;4986824;28;20050;-74
2022/09/22 04:35:36;;;;;;;4.05;2.05;;;5.80;99.90;;;;;;4980915;28;20084;-74
2022/09/22 04:38:02;;;;;;;5.82;2.30;;;5.70;99.90;;;;;;4984609;28;20050;-74
2022/09/22 04:40:28;;;;;;;3.70;1.98;;;5.70;99.90;;;;;;4991081;28;20070;-73
2022/09/22 04:42:55;;;;;;;4.95;1.88;;;5.70;99.90;;;;;;4982346;28;20059;-73
2022/09/22 04:45:21;;;;;;;4.38;1.85;;;5.80;99.90;;;;;;4983491;28;20499;-74
2022/09/22 04:47:48;;;;;;;5.10;2.80;;;5.80;99.90;;;;;;4980655;28;20093;-73
2022/09/22 04:50:15;;;;;;;8.48;3.50;;;5.80;99.90;;;;;;4990031;28;20039;-73
2022/09/22 04:52:45;;;;;;;4.65;3.50;;;5.80;99.90;;;;;;4984274;28;20108;-74
2022/09/22 04:55:12;;;;;;;2.83;2.22;;;5.80;99.90;;;;;;4987166;28;20053;-74
2022/09/22 04:57:37;;;;;;;3.65;3.35;;;5.80;99.90;;;;;;4985714;28;20039;-74
2022/09/22 05:00:04;;;;;;;5.63;3.70;;;5.90;99.90;;;;;;4996871;28;20077;-75
2022/09/22 05:02:30;;;;;;;4.53;2.83;;;5.90;99.90;;;;;;4977744;28;20054;-74
2022/09/22 05:04:55;;;;;;;3.55;2.00;;;5.90;99.90;;;;;;4986618;28;20039;-73
2022/09/22 05:07:21;;;;;;;3.20;2.90;;;5.80;99.90;;;;;;4984526;28;20073;-74
2022/09/22 05:09:47;;;;;;;4.60;3.53;;;5.80;99.90;;;;;;4988242;28;20042;-75
2022/09/22 05:12:12;;;;;;;4.10;3.70;;;5.80;99.90;;;;;;4981560;28;20170;-73
2022/09/22 05:14:38;;;;;;;4.85;3.50;;;5.80;99.90;;;;;;4983350;28;20081;-73
2022/09/22 05:17:05;;;;;;;7.22;4.13;;;5.80;99.90;;;;;;4971968;28;20112;-74
2022/09/22 05:19:31;;;;;;;3.65;3.17;;;5.90;99.90;;;;;;4988098;28;20505;-74
2022/09/22 05:21:56;;;;;;;2.75;2.55;;;5.90;99.90;;;;;;4987385;28;20039;-73
2022/09/22 05:24:22;;;;;;;3.25;2.20;;;5.90;99.90;;;;;;4988153;28;20047;-73
2022/09/22 05:26:47;;;;;;;3.83;3.13;;;5.80;99.90;;;;;;4985493;28;20136;-73
2022/09/22 05:29:14;;;;;;;3.85;2.10;;;5.80;99.90;;;;;;4984325;28;20212;-73
2022/09/22 05:31:40;;;;;;;5.95;4.28;;;5.80;99.90;;;;;;4985353;28;20047;-74
2022/09/22 05:34:05;;;;;;;8.07;5.45;;;5.80;99.90;;;;;;4980493;28;20077;-74
2022/09/22 05:36:31;;;;;;;6.93;4.20;;;5.70;99.90;;;;;;4982057;28;20053;-74
2022/09/22 05:38:57;;;;;;;6.10;5.03;;;5.70;99.90;;;;;;4979872;28;20050;-74
2022/09/22 05:41:23;;;;;;;7.07;6.40;;;5.70;99.90;;;;;;5003715;28;20116;-73
2022/09/22 05:43:48;;;;;;;4.60;3.95;;;5.70;99.90;;;;;;4983782;28;20061;-74
2022/09/22 05:46:14;;;;;;;3.25;2.33;;;5.70;99.90;;;;;;4983263;28;20423;-73
2022/09/22 05:48:39;;;;;;;7.60;4.00;;;5.80;99.90;;;;;;4982771;28;20122;-74
2022/09/22 05:51:05;;;;;;;4.50;4.10;;;5.70;99.90;;;;;;4969600;28;20043;-75
2022/09/22 05:53:31;;;;;;;5.25;4.45;;;5.70;99.90;;;;;;4984968;28;20061;-76
2022/09/22 05:55:58;;;;;;;9.05;6.57;;;5.80;99.90;;;;;;4984430;28;20039;-76
2022/09/22 05:58:23;;;;;;;8.57;7.47;;;5.80;99.90;;;;;;4984763;28;20042;-71
2022/09/22 06:00:49;;;;;;;7.90;6.00;;;5.80;99.90;;;;;;4988788;28;20098;-74
2022/09/22 06:03:15;;;;;;;6.72;4.45;;;5.80;99.90;;;;;;4981432;28;20059;-74
2022/09/22 06:05:42;;;;;;;5.10;3.03;;;5.90;99.90;;;;;;4976995;28;20416;-75
2022/09/22 06:08:08;;;;;;;2.72;2.42;;;5.90;99.90;;;;;;4989653;28;20097;-75
2022/09/22 06:10:36;;;;;;;4.55;2.53;;;5.90;99.90;;;;;;4988037;28;20045;-76
2022/09/22 06:13:07;;;;;;;3.63;3.05;;;5.90;99.90;;;;;;4979650;28;20042;-74
2022/09/22 06:15:34;;;;;;;5.38;2.38;;;5.90;99.90;;;;;;4984636;28;20564;-75
2022/09/22 06:18:02;;;;;;;3.28;2.30;;;5.90;99.90;;;;;;4984221;28;20046;-74
2022/09/22 06:20:28;;;;;;;2.85;2.53;;;5.90;99.90;;;;;;4982771;28;20034;-74
2022/09/22 06:22:55;;;;;;;3.10;2.80;;;5.90;99.90;;;;;;4982226;28;20042;-73
2022/09/22 06:25:22;;;;;;;3.92;3.05;;;6.00;99.90;;;;;;4986898;28;20085;-75
2022/09/22 06:27:56;;;;;;;4.10;3.70;;;6.10;99.90;;;;;;4971208;28;20034;-75
2022/09/22 06:30:22;;;;;;;5.05;4.30;;;6.10;99.90;;;;;;4978093;28;20039;-75
2022/09/22 06:32:53;;;;;;;6.45;2.92;;;6.10;99.90;;;;;;4982517;28;20507;-75
2022/09/22 06:35:18;;;;;;;6.97;3.17;;;6.20;99.90;;;;;;4985782;28;20092;-75
2022/09/22 06:37:47;;;;;;;6.47;3.95;;;6.20;99.90;;;;;;4986723;28;20074;-75
2022/09/22 06:40:13;;;;;;;6.88;5.60;;;6.20;99.90;;;;;;4969593;28;20050;-75
2022/09/22 06:42:41;;;;;;;9.63;4.78;;;6.30;99.90;;;;;;4974824;28;20053;-75
2022/09/22 06:45:07;;;;;;;5.25;4.75;;;6.30;99.90;;;;;;4989209;28;20074;-75
2022/09/22 06:47:33;;;;;;;7.65;6.05;;;6.40;99.90;;;;;;4985626;28;20466;-75
2022/09/22 06:50:04;;;;;;;10.68;5.95;;;6.40;99.90;;;;;;4978773;28;20066;-75
2022/09/22 06:52:31;;;;;;;11.70;7.15;;;6.50;99.90;;;;;;4973359;28;20078;-75
2022/09/22 06:55:00;;;;;;;8.75;7.78;;;6.50;99.90;;;;;;4981237;28;20051;-75
2022/09/22 06:57:31;;;;;;;9.07;7.68;;;6.60;99.90;;;;;;4989314;28;20053;-75
2022/09/22 07:00:02;;;;;;;9.40;8.35;;;6.70;99.90;;;;;;4980460;28;20089;-75
2022/09/22 07:02:27;;;;;;;10.48;9.27;;;6.70;99.90;;;;;;4987317;28;20056;-74
2022/09/22 07:04:59;;;;;;;11.32;10.18;;;6.80;99.90;;;;;;4987775;28;20034;-75
2022/09/22 07:07:29;;;;;;;12.10;10.50;;;6.90;99.90;;;;;;4980236;28;20038;-78
2022/09/22 07:09:55;;;;;;;12.20;10.90;;;7.00;99.90;;;;;;4987557;28;20042;-76
2022/09/22 07:12:21;;;;;;;16.05;12.27;;;7.00;99.90;;;;;;4979331;28;20046;-75
2022/09/22 07:14:52;;;;;;;12.88;11.57;;;7.10;99.90;;;;;;4977514;28;20052;-75
2022/09/22 07:17:19;;;;;;;15.68;11.65;;;7.20;99.90;;;;;;4983397;28;20042;-76
2022/09/22 07:19:48;;;;;;;14.00;12.52;;;7.30;99.90;;;;;;4982442;28;20046;-76
2022/09/22 07:22:14;;;;;;;15.65;13.40;;;7.40;99.90;;;;;;4982782;28;20423;-76
2022/09/22 07:24:44;;;;;;;14.32;12.88;;;7.50;99.90;;;;;;4989462;28;20038;-76
2022/09/22 07:27:13;;;;;;;17.77;14.63;;;7.60;99.90;;;;;;4982715;28;20081;-75
2022/09/22 07:29:38;;;;;;;17.70;15.82;;;7.70;99.90;;;;;;4987341;28;20081;-75
2022/09/22 07:32:05;;;;;;;19.08;15.75;;;7.90;99.90;;;;;;4989425;28;20071;-78
2022/09/22 07:34:31;;;;;;;19.48;14.23;;;8.00;99.90;;;;;;4989292;28;20058;-76
2022/09/22 07:36:58;;;;;;;14.73;13.23;;;8.10;99.90;;;;;;4982598;28;20050;-76
2022/09/22 07:39:24;;;;;;;17.30;15.23;;;8.20;99.90;;;;;;5004198;28;20053;-75
2022/09/22 07:41:50;;;;;;;15.35;13.85;;;8.30;99.90;;;;;;4965647;28;20054;-75
2022/09/22 07:47:02;;;;;;;20.83;16.48;;;8.50;99.90;;;;;;4989144;28;20050;-75
2022/09/22 07:49:27;;;;;;;18.77;16.67;;;8.60;99.90;;;;;;4983960;28;20057;-74
2022/09/22 07:51:53;;;;;;;23.30;16.13;;;8.80;99.90;;;;;;4973416;28;20047;-75
2022/09/22 07:54:20;;;;;;;15.60;13.32;;;8.90;99.90;;;;;;4986441;28;20108;-75
2022/09/22 07:56:46;;;;;;;19.63;13.80;;;9.00;99.90;;;;;;4987330;28;20137;-75
2022/09/22 07:59:14;;;;;;;15.43;13.82;;;9.10;99.90;;;;;;4993190;28;20134;-76
2022/09/22 08:01:43;;;;;;;19.88;13.20;;;9.20;99.90;;;;;;4975734;28;20056;-74
2022/09/22 08:04:17;;;;;;;19.23;12.82;;;9.30;99.90;;;;;;4974561;28;20048;-75
2022/09/22 08:06:44;;;;;;;15.10;13.48;;;9.50;99.90;;;;;;4971835;28;20372;-76
2022/09/22 08:09:11;;;;;;;20.30;11.48;;;9.60;99.90;;;;;;4987659;28;20049;-76
2022/09/22 08:11:37;;;;;;;15.07;11.88;;;9.70;99.90;;;;;;4981040;28;20484;-75
2022/09/22 08:14:09;;;;;;;15.80;12.35;;;9.90;99.90;;;;;;4987030;28;20410;-74
2022/09/22 08:16:38;;;;;;;14.52;12.95;;;10.00;99.90;;;;;;4995564;28;20046;-74
2022/09/22 08:19:11;;;;;;;14.02;12.27;;;10.10;99.90;;;;;;4969404;28;20053;-75
2022/09/22 08:21:41;;;;;;;14.85;13.23;;;10.20;99.90;;;;;;4992607;28;20154;-77
2022/09/22 08:24:09;;;;;;;15.20;13.68;;;10.30;99.90;;;;;;4991034;28;20552;-74
2022/09/22 08:26:36;;;;;;;17.13;13.23;;;10.30;99.90;;;;;;4987689;28;20117;-76
2022/09/22 08:29:04;;;;;;;14.27;11.98;;;10.40;99.90;;;;;;4980176;28;20043;-75
2022/09/22 08:31:30;;;;;;;14.73;11.73;;;10.50;99.90;;;;;;4973244;28;20042;-75
2022/09/22 08:33:56;;;;;;;15.38;12.80;;;10.60;99.90;;;;;;4984107;28;20443;-75
2022/09/22 08:36:26;;;;;;;10.80;9.70;;;10.70;99.90;;;;;;4989250;28;20129;-75
2022/09/22 08:38:53;;;;;;;11.50;8.75;;;10.80;99.90;;;;;;4991885;28;20050;-75
2022/09/22 08:41:23;;;;;;;11.45;8.13;;;10.90;99.90;;;;;;4993276;28;20050;-74
2022/09/22 08:43:54;;;;;;;10.52;6.65;;;11.10;99.90;;;;;;4985770;28;20050;-75
2022/09/22 08:46:24;;;;;;;12.88;7.85;;;11.20;99.90;;;;;;4986121;28;20058;-75
2022/09/22 08:51:51;;;;;;;9.02;6.90;;;11.50;99.90;;;;;;4983319;28;20042;-75
2022/09/22 08:54:20;;;;;;;8.50;6.30;;;11.60;99.90;;;;;;4982256;28;20051;-75
2022/09/22 08:57:16;;;;;;;11.68;6.53;;;11.80;99.90;;;;;;4979767;28;20043;-75
2022/09/22 09:00:04;;;;;;;7.88;5.15;;;12.00;99.90;;;;;;4977864;28;20117;-75
2022/09/22 09:02:36;;;;;;;14.00;5.32;;;12.20;99.90;;;;;;4977176;28;20138;-75
2022/09/22 09:05:29;;;;;;;9.52;5.90;;;12.40;99.90;;;;;;4991637;28;20050;-75
2022/09/22 09:07:59;;;;;;;10.00;5.03;;;12.60;99.90;;;;;;4989660;28;20049;-75
2022/09/22 09:10:57;;;;;;;8.27;5.40;;;12.70;99.90;;;;;;4979645;28;20065;-75
2022/09/22 09:13:35;;;;;;;6.20;4.60;;;12.80;99.90;;;;;;4972871;28;20050;-75
2022/09/22 09:16:25;;;;;;;7.25;5.32;;;12.90;99.90;;;;;;4976241;28;20070;-75
2022/09/22 09:19:10;;;;;;;8.55;4.70;;;13.00;99.90;;;;;;4972403;28;20038;-75
2022/09/22 09:21:38;;;;;;;9.00;3.78;;;13.10;99.90;;;;;;4975915;28;20134;-75
2022/09/22 09:24:09;;;;;;;7.15;3.63;;;13.20;99.90;;;;;;4990788;28;20070;-75
2022/09/22 09:26:35;;;;;;;7.03;4.65;;;13.30;99.90;;;;;;4990228;28;20042;-75
2022/09/22 09:29:06;;;;;;;5.95;3.83;;;13.40;99.90;;;;;;4981067;28;20043;-74
2022/09/22 09:31:51;;;;;;;8.27;3.80;;;13.50;99.90;;;;;;4982412;28;20509;-76
2022/09/22 09:34:20;;;;;;;5.32;3.33;;;13.60;99.90;;;;;;4982837;28;20074;-76
2022/09/22 09:36:54;;;;;;;7.63;3.10;;;13.80;99.90;;;;;;4970189;28;20051;-75
2022/09/22 09:39:30;;;;;;;5.60;3.42;;;14.00;99.90;;;;;;4986433;28;20073;-76
2022/09/22 09:41:58;;;;;;;9.18;3.70;;;14.10;99.90;;;;;;4989994;28;20042;-75
2022/09/22 09:44:37;;;;;;;9.63;3.30;;;14.20;99.90;;;;;;4988093;28;20110;-73
2022/09/22 09:47:18;;;;;;;5.00;3.08;;;14.30;99.90;;;;;;4984919;28;20042;-74
2022/09/22 09:49:44;;;;;;;6.28;3.10;;;14.40;99.90;;;;;;4982617;28;20074;-74
2022/09/22 09:52:12;;;;;;;5.57;3.10;;;14.50;99.90;;;;;;4990679;28;20050;-74
2022/09/22 09:54:40;;;;;;;10.38;3.33;;;14.70;99.90;;;;;;4983240;28;20046;-72
2022/09/22 09:57:10;;;;;;;8.05;3.40;;;14.80;99.90;;;;;;4979517;28;20050;-74
2022/09/22 10:02:27;;;;;;;7.45;3.13;;;15.00;99.90;;;;;;4985714;28;20062;-74
2022/09/22 10:04:57;;;;;;;6.68;3.25;;;15.10;99.90;;;;;;4980342;28;20043;-74
2022/09/22 10:07:26;;;;;;;7.03;2.63;;;15.30;99.90;;;;;;4998090;28;20133;-74
2022/09/22 10:09:53;;;;;;;5.35;2.72;;;15.30;99.90;;;;;;4991226;28;20042;-74
2022/09/22 10:12:23;;;;;;;8.35;2.67;;;15.50;99.90;;;;;;4975129;28;20061;-74
2022/09/22 10:14:52;;;;;;;6.60;2.13;;;15.50;99.90;;;;;;4981218;28;20054;-74
2022/09/22 10:17:27;;;;;;;7.47;2.55;;;15.60;99.90;;;;;;4986646;28;20042;-74
2022/09/22 10:20:20;;;;;;;6.47;2.50;;;15.80;99.90;;;;;;4986349;28;20082;-74
2022/09/22 10:22:47;;;;;;;4.70;2.30;;;15.90;99.90;;;;;;4980426;28;20054;-74
2022/09/22 10:25:24;;;;;;;7.57;2.47;;;16.00;99.90;;;;;;4991357;28;20050;-75
2022/09/22 10:28:12;;;;;;;9.75;2.72;;;16.20;99.90;;;;;;4980390;28;20031;-74
2022/09/22 10:30:39;;;;;;;7.45;2.60;;;16.30;99.90;;;;;;4979133;28;20042;-75
2022/09/22 10:33:10;;;;;;;5.20;2.50;;;16.40;99.90;;;;;;4982264;28;20569;-75
2022/09/22 10:35:36;;;;;;;8.65;2.38;;;16.50;99.90;;;;;;4986949;28;20380;-74
2022/09/22 10:38:21;;;;;;;6.55;2.38;;;16.70;99.90;;;;;;4977967;28;20706;-74
2022/09/22 10:41:09;;;;;;;6.93;2.60;;;16.80;99.90;;;;;;4985622;28;20054;-74
2022/09/22 10:43:47;;;;;;;5.55;2.22;;;17.00;99.90;;;;;;4989978;28;20057;-74
2022/09/22 10:46:19;;;;;;;6.88;2.33;;;17.10;99.90;;;;;;4971590;28;20077;-75
2022/09/22 10:49:08;;;;;;;6.65;2.45;;;17.30;99.90;;;;;;4982628;28;20043;-75
2022/09/22 10:51:45;;;;;;;8.48;2.70;;;17.50;99.90;;;;;;4971759;28;20041;-75
2022/09/22 10:54:40;;;;;;;8.88;2.88;;;17.70;99.90;;;;;;4980841;28;20475;-75
2022/09/22 10:57:24;;;;;;;7.72;2.55;;;17.90;99.90;;;;;;4970998;28;20077;-75
2022/09/22 11:00:10;;;;;;;5.55;2.97;;;18.10;99.90;;;;;;4982966;28;20050;-75
2022/09/22 11:03:06;;;;;;;14.40;3.78;;;18.30;99.90;;;;;;4976664;28;20042;-75
2022/09/22 11:12:35;;;;;;;7.22;3.88;;;18.90;96.20;;;;;;4986216;28;20050;-75
2022/09/22 11:15:22;;;;;;;7.07;4.30;;;19.10;95.30;;;;;;4967912;28;20084;-75
2022/09/22 11:18:03;;;;;;;9.32;4.30;;;19.40;93.90;;;;;;4982540;28;20042;-75
2022/09/22 11:20:39;;;;;;;7.28;3.97;;;19.60;92.90;;;;;;4982682;28;20039;-75
2022/09/22 11:23:23;;;;;;;8.57;4.57;;;19.60;94.20;;;;;;4981692;28;20050;-75
2022/09/22 11:26:23;;;;;;;6.30;4.20;;;19.60;94.40;;;;;;4985624;28;20038;-75
2022/09/22 11:29:16;;;;;;;9.05;4.40;;;19.80;91.90;;;;;;4980729;28;20046;-74
2022/09/22 11:31:53;;;;;;;10.90;4.32;;;19.90;90.30;;;;;;4983452;28;20046;-74
2022/09/22 11:34:50;;;;;;;7.00;3.10;;;20.10;91.00;;;;;;4981064;28;20047;-74
2022/09/22 11:37:41;;;;;;;6.53;3.70;;;20.40;85.10;;;;;;4983175;28;20042;-74
2022/09/22 11:40:38;;;;;;;7.45;3.28;;;20.40;88.70;;;;;;4983983;28;20046;-76
2022/09/22 11:43:28;;;;;;;8.40;3.58;;;20.30;89.70;;;;;;4983400;28;20534;-76
2022/09/22 11:46:01;;;;;;;6.57;3.63;;;20.20;86.70;;;;;;4985266;28;20050;-76
2022/09/22 11:48:45;;;;;;;6.85;4.38;;;20.20;90.80;;;;;;4983435;28;20042;-76
2022/09/22 11:51:39;;;;;;;5.05;3.65;;;20.20;90.10;;;;;;4986927;28;20080;-76
2022/09/22 11:54:33;;;;;;;12.30;3.83;;;20.30;85.50;;;;;;4989519;28;20098;-76
2022/09/22 11:57:03;;;;;;;9.02;3.92;;;20.50;88.00;;;;;;4986093;28;20098;-78
2022/09/22 11:59:42;;;;;;;9.52;3.95;;;20.60;87.00;;;;;;4998111;28;20042;-76
2022/09/22 12:02:25;;;;;;;7.22;3.72;;;20.50;86.10;;;;;;4984779;28;20065;-76
2022/09/22 12:05:00;;;;;;;7.70;3.38;;;20.30;84.10;;;;;;4982631;28;20522;-76
2022/09/22 12:07:54;;;;;;;6.30;3.17;;;20.20;81.10;;;;;;4985352;28;20030;-76
2022/09/22 12:10:43;;;;;;;6.90;3.25;;;20.20;80.70;;;;;;4965388;28;20092;-76
2022/09/22 12:13:19;;;;;;;5.63;3.40;;;20.50;83.30;;;;;;4995675;28;20046;-74
2022/09/22 12:16:00;;;;;;;6.75;3.88;;;20.80;84.50;;;;;;4972103;28;20085;-78
2022/09/22 12:18:26;;;;;;;5.15;3.20;;;20.80;79.30;;;;;;4991237;28;20105;-75
2022/09/22 12:21:05;;;;;;;6.63;3.33;;;20.70;84.80;;;;;;4992797;28;20050;-74
2022/09/22 12:23:47;;;;;;;7.35;3.92;;;20.40;81.10;;;;;;4975117;28;20070;-77
2022/09/22 12:26:14;;;;;;;;;;;20.10;80.10;;;;;;4987743;28;20038;-74
2022/09/22 12:28:44;;;;;;;5.75;3.50;;;19.50;81.40;;;;;;4991314;28;20033;-74
2022/09/22 12:31:14;;;;;;;7.78;3.30;;;19.10;82.40;;;;;;4973572;28;20054;-73
2022/09/22 12:33:55;;;;;;;8.82;3.58;;;19.30;87.60;;;;;;4992827;28;20086;-77
2022/09/22 12:36:34;;;;;;;6.30;3.13;;;19.70;90.30;;;;;;4961304;28;20126;-79
2022/09/22 12:39:21;;;;;;;7.30;3.05;;;20.30;85.60;;;;;;4979635;28;20453;-77
2022/09/22 12:42:01;;;;;;;6.22;2.75;;;20.70;83.80;;;;;;4992340;28;20046;-77
2022/09/22 12:44:36;;;;;;;5.07;2.88;;;20.70;79.60;;;;;;4991105;28;20064;-78
2022/09/22 12:47:23;;;;;;;4.90;2.47;;;20.70;82.60;;;;;;4991779;28;20465;-79
2022/09/22 12:49:58;;;;;;;7.78;3.55;;;20.00;75.30;;;;;;4991622;28;20054;-79
2022/09/22 12:52:56;;;;;;;6.25;2.95;;;19.80;79.60;;;;;;4985905;28;20130;-79
2022/09/22 12:55:26;;;;;;;5.97;3.10;;;19.80;80.20;;;;;;4970514;28;20096;-79
2022/09/22 12:57:53;;;;;;;4.50;2.67;;;20.10;84.60;;;;;;4987014;28;20050;-80
2022/09/22 13:00:27;;;;;;;3.97;2.92;;;20.50;84.80;;;;;;4969248;28;20080;-78
2022/09/22 13:02:55;;;;;;;6.60;3.40;;;20.90;83.70;;;;;;4978131;28;20070;-80
2022/09/22 13:05:26;;;;;;;6.05;2.85;;;21.30;83.90;;;;;;4978112;28;20049;-79
2022/09/22 13:07:54;;;;;;;9.73;3.40;;;21.70;78.70;;;;;;4972868;28;20046;-80
2022/09/22 13:10:20;;;;;;;7.28;2.72;;;22.00;80.00;;;;;;4986422;28;20042;-79
2022/09/22 13:13:04;;;;;;;6.20;2.10;;;22.10;79.50;;;;;;4990541;28;20073;-79
2022/09/22 13:15:42;;;;;;;6.90;2.50;;;22.00;79.90;;;;;;4985652;28;20137;-79
2022/09/22 13:18:33;;;;;;;6.95;2.88;;;22.00;80.40;;;;;;4974595;28;20046;-81
2022/09/22 13:21:01;;;;;;;7.28;2.80;;;22.30;81.30;;;;;;4982654;28;20053;-81
2022/09/22 13:23:27;;;;;;;8.48;2.60;;;22.40;79.20;;;;;;4986804;28;20046;-81
2022/09/22 13:25:53;;;;;;;3.85;2.17;;;22.40;76.70;;;;;;4979145;28;20043;-81
2022/09/22 13:28:24;;;;;;;4.13;2.10;;;22.20;77.50;;;;;;4976828;28;20050;-81
2022/09/22 13:31:13;;;;;;;5.68;2.30;;;22.20;80.70;;;;;;4986051;28;20043;-80